createdAt,value
2023-05-07T00:02:53.083Z,5.87
2023-05-07T00:06:21.040Z,7.10
2023-05-07T00:09:25.043Z,5.90
2023-05-07T00:12:44.110Z,6.80
2023-05-07T00:15:48.051Z,7.45
2023-05-07T00:19:17.183Z,8.13
2023-05-07T00:22:20.982Z,6.40
2023-05-07T00:25:37.101Z,9.67
2023-05-07T00:28:41.122Z,9.80
2023-05-07T00:32:00.063Z,11.70
2023-05-07T00:35:20.141Z,7.70
2023-05-07T00:38:39.144Z,8.25
2023-05-07T00:41:42.937Z,10.13
2023-05-07T00:45:02.168Z,10.03
2023-05-07T00:48:06.162Z,9.93
2023-05-07T00:51:39.144Z,9.43
2023-05-07T00:54:43.097Z,9.50
2023-05-07T00:58:02.236Z,9.85
2023-05-07T01:01:06.370Z,9.73
2023-05-07T01:04:25.153Z,10.17
2023-05-07T01:07:57.596Z,12.15
2023-05-07T01:11:26.386Z,10.35
2023-05-07T01:14:42.167Z,15.65
2023-05-07T01:18:11.339Z,11.87
2023-05-07T01:21:39.275Z,8.90
2023-05-07T01:25:12.183Z,10.60
2023-05-07T01:28:28.294Z,11.80
2023-05-07T01:31:57.307Z,10.55
2023-05-07T01:35:25.342Z,10.75
2023-05-07T01:38:56.316Z,9.67
2023-05-07T01:42:16.306Z,16.67
2023-05-07T01:45:44.265Z,12.55
2023-05-07T01:49:00.254Z,12.65
2023-05-07T01:52:19.474Z,13.63
2023-05-07T01:55:47.281Z,11.35
2023-05-07T01:59:20.364Z,13.35
2023-05-07T02:02:36.425Z,11.35
2023-05-07T02:05:52.372Z,15.10
2023-05-07T02:09:08.341Z,14.55
2023-05-07T02:12:27.337Z,13.57
2023-05-07T02:15:47.611Z,13.65
2023-05-07T02:19:06.637Z,13.97
2023-05-07T02:22:34.437Z,14.90
2023-05-07T02:25:53.426Z,14.35
2023-05-07T02:28:57.415Z,15.10
2023-05-07T02:32:27.600Z,16.25
2023-05-07T02:35:43.480Z,14.20
2023-05-07T02:39:02.498Z,15.65
2023-05-07T02:42:18.428Z,16.00
2023-05-07T02:45:37.436Z,15.75
2023-05-07T02:49:06.445Z,14.30
2023-05-07T02:52:25.439Z,16.07
2023-05-07T02:55:41.576Z,21.20
2023-05-07T02:59:03.575Z,18.45
2023-05-07T03:02:20.600Z,18.00
2023-05-07T03:05:55.599Z,18.43
2023-05-07T03:08:59.529Z,15.83
2023-05-07T03:12:28.635Z,19.37
2023-05-07T03:15:44.572Z,21.13
2023-05-07T03:19:03.623Z,17.80
2023-05-07T03:22:36.637Z,16.90
2023-05-07T03:25:53.674Z,17.73
2023-05-07T03:29:09.668Z,16.25
2023-05-07T03:32:28.718Z,18.25
2023-05-07T03:35:44.648Z,19.45
2023-05-07T03:39:14.597Z,17.60
2023-05-07T03:42:42.672Z,16.27
2023-05-07T03:46:01.712Z,17.97
2023-05-07T03:49:17.743Z,17.10
2023-05-07T03:52:36.845Z,16.53
2023-05-07T03:56:05.696Z,16.05
2023-05-07T03:59:24.653Z,16.73
2023-05-07T04:02:40.886Z,16.80
2023-05-07T04:05:56.503Z,16.20
2023-05-07T04:09:12.792Z,14.57
2023-05-07T04:12:50.852Z,14.87
2023-05-07T04:16:18.830Z,15.53
2023-05-07T04:19:37.785Z,15.63
2023-05-07T04:22:54.801Z,15.73
2023-05-07T04:26:13.850Z,15.17
2023-05-07T04:29:45.977Z,14.45
2023-05-07T04:33:04.893Z,13.90
2023-05-07T04:36:20.811Z,14.30
2023-05-07T04:39:39.794Z,13.47
2023-05-07T04:42:55.878Z,14.80
2023-05-07T04:46:27.946Z,16.93
2023-05-07T04:49:43.905Z,14.37
2023-05-07T04:52:59.875Z,14.45
2023-05-07T04:56:15.882Z,14.93
2023-05-07T04:59:34.829Z,13.87
2023-05-07T05:03:04.027Z,16.17
2023-05-07T05:06:22.877Z,14.43
2023-05-07T05:09:38.871Z,13.90
2023-05-07T05:12:57.903Z,15.20
2023-05-07T05:16:13.966Z,13.90
2023-05-07T05:19:43.921Z,13.55
2023-05-07T05:22:59.901Z,18.30
2023-05-07T05:26:19.146Z,15.13
2023-05-07T05:29:47.053Z,13.63
2023-05-07T05:33:06.034Z,14.83
2023-05-07T05:36:35.998Z,16.75
2023-05-07T05:39:54.977Z,15.20
2023-05-07T05:43:11.062Z,14.43
2023-05-07T05:46:27.192Z,15.60
2023-05-07T05:49:43.026Z,15.10
2023-05-07T05:53:15.260Z,14.40
2023-05-07T05:56:43.026Z,15.27
2023-05-07T06:00:11.158Z,16.07
2023-05-07T06:03:32.192Z,14.83
2023-05-07T06:06:48.046Z,14.97
2023-05-07T06:10:17.185Z,15.67
2023-05-07T06:13:33.188Z,17.70
2023-05-07T06:16:49.200Z,17.40
2023-05-07T06:20:05.102Z,17.37
2023-05-07T06:23:24.238Z,15.60
2023-05-07T06:26:53.142Z,16.73
2023-05-07T06:30:09.437Z,21.10
2023-05-07T06:33:37.258Z,17.20
2023-05-07T06:36:56.432Z,15.23
2023-05-07T06:40:12.808Z,17.50
2023-05-07T06:43:47.259Z,15.40
2023-05-07T06:47:03.339Z,19.40
2023-05-07T06:50:35.177Z,18.00
2023-05-07T06:54:03.249Z,17.50
2023-05-07T06:57:25.226Z,18.60
2023-05-07T07:00:57.356Z,17.13
2023-05-07T07:04:16.266Z,21.13
2023-05-07T07:07:35.358Z,18.30
2023-05-07T07:10:51.323Z,16.85
2023-05-07T07:14:07.261Z,20.15
2023-05-07T07:17:37.361Z,18.67
2023-05-07T07:20:53.858Z,19.07
2023-05-07T07:24:25.428Z,17.23
2023-05-07T07:27:53.402Z,19.17
2023-05-07T07:31:09.449Z,20.05
2023-05-07T07:34:38.539Z,20.23
2023-05-07T07:37:55.449Z,16.53
2023-05-07T07:41:11.364Z,19.70
2023-05-07T07:44:30.343Z,21.15
2023-05-07T07:47:46.433Z,19.60
2023-05-07T07:51:20.313Z,17.13
2023-05-07T07:54:36.460Z,20.80
2023-05-07T07:57:52.424Z,20.73
2023-05-07T08:01:08.430Z,19.33
2023-05-07T08:04:27.513Z,17.35
2023-05-07T08:07:59.674Z,19.20
2023-05-07T08:11:27.441Z,17.90
2023-05-07T08:14:43.632Z,19.50
2023-05-07T08:18:11.653Z,18.40
2023-05-07T08:21:39.464Z,16.80
2023-05-07T08:25:11.550Z,18.50
2023-05-07T08:28:40.587Z,19.57
2023-05-07T08:32:11.626Z,18.40
2023-05-07T08:35:30.512Z,18.77
2023-05-07T08:38:58.677Z,15.50
2023-05-07T08:42:27.526Z,16.25
2023-05-07T08:45:55.592Z,17.00
2023-05-07T08:49:11.645Z,15.50
2023-05-07T08:52:40.777Z,18.33
2023-05-07T08:55:56.714Z,16.67
2023-05-07T08:59:31.584Z,16.27
2023-05-07T09:02:47.638Z,18.30
2023-05-07T09:06:06.502Z,17.00
2023-05-07T09:09:22.745Z,13.73
2023-05-07T09:12:41.770Z,13.17
2023-05-07T09:16:10.732Z,15.33
2023-05-07T09:19:27.769Z,14.77
2023-05-07T09:22:43.745Z,16.67
2023-05-07T09:26:00.651Z,13.57
2023-05-07T09:29:28.745Z,13.50
2023-05-07T09:32:57.958Z,17.43
2023-05-07T09:36:13.812Z,12.97
2023-05-07T09:39:32.807Z,16.13
2023-05-07T09:43:00.721Z,13.30
2023-05-07T09:46:32.805Z,12.40
2023-05-07T09:50:02.708Z,14.90
2023-05-07T09:53:33.868Z,12.13
2023-05-07T09:57:04.831Z,13.73
2023-05-07T10:00:36.685Z,14.37
2023-05-07T10:04:07.934Z,13.27
2023-05-07T10:07:39.920Z,12.87
2023-05-07T10:11:08.856Z,11.33
2023-05-07T10:14:37.003Z,11.53
2023-05-07T10:18:08.995Z,11.17
2023-05-07T10:21:36.904Z,11.67
2023-05-07T10:25:08.497Z,10.90
2023-05-07T10:28:34.954Z,11.43
2023-05-07T10:32:15.941Z,12.20
2023-05-07T10:35:43.957Z,11.43
2023-05-07T10:39:16.846Z,13.23
2023-05-07T10:42:49.001Z,11.47
2023-05-07T10:46:38.007Z,11.20
2023-05-07T10:50:19.980Z,10.87
2023-05-07T10:53:51.162Z,10.80
2023-05-07T10:57:07.072Z,9.77
2023-05-07T11:00:43.037Z,11.03
2023-05-07T11:04:16.396Z,10.20
2023-05-07T11:07:56.122Z,10.63
2023-05-07T11:11:24.047Z,10.85
2023-05-07T11:15:01.228Z,10.25
2023-05-07T11:18:25.139Z,9.83
2023-05-07T11:22:00.904Z,9.33
2023-05-07T11:25:33.113Z,10.10
2023-05-07T11:29:05.174Z,10.43
2023-05-07T11:32:33.212Z,9.77
2023-05-07T11:36:01.098Z,8.67
2023-05-07T11:39:29.233Z,9.90
2023-05-07T11:43:01.197Z,10.07
2023-05-07T11:46:20.239Z,10.00
2023-05-07T11:49:49.135Z,8.53
2023-05-07T11:52:53.203Z,8.93
2023-05-07T11:56:21.117Z,9.10
2023-05-07T11:59:38.278Z,8.60
2023-05-07T12:03:01.597Z,8.53
2023-05-07T12:06:30.227Z,8.97
2023-05-07T12:09:34.227Z,8.77
2023-05-07T12:13:10.283Z,8.70
2023-05-07T12:16:30.306Z,9.30
2023-05-07T12:19:59.404Z,7.90
2023-05-07T12:23:15.278Z,10.00
2023-05-07T12:26:31.341Z,8.43
2023-05-07T12:29:49.330Z,10.50
2023-05-07T12:33:18.250Z,8.10
2023-05-07T12:36:34.345Z,8.55
2023-05-07T12:39:51.273Z,7.50
2023-05-07T12:43:07.402Z,8.15
2023-05-07T12:46:26.537Z,8.15
2023-05-07T12:49:43.502Z,7.30
2023-05-07T12:53:11.281Z,6.57
2023-05-07T12:56:27.423Z,7.03
2023-05-07T13:00:05.569Z,6.73
2023-05-07T13:03:12.463Z,6.27
2023-05-07T13:06:42.330Z,6.17
2023-05-07T13:10:01.351Z,6.40
2023-05-07T13:13:20.429Z,5.67
2023-05-07T13:16:36.512Z,6.50
2023-05-07T13:19:52.382Z,6.07
2023-05-07T13:23:09.423Z,5.70
2023-05-07T13:26:28.485Z,5.20
2023-05-07T13:29:32.534Z,6.47
2023-05-07T13:32:48.558Z,6.40
2023-05-07T13:35:52.496Z,7.67
2023-05-07T13:39:21.646Z,5.60
2023-05-07T13:42:28.312Z,8.13
2023-05-07T13:45:47.548Z,5.95
2023-05-07T13:48:51.467Z,5.47
2023-05-07T13:52:10.579Z,5.90
2023-05-07T13:55:30.624Z,6.37
2023-05-07T13:58:59.618Z,6.40
2023-05-07T14:01:53.598Z,6.10
2023-05-07T14:05:10.513Z,4.97
2023-05-07T14:08:14.769Z,5.40
2023-05-07T14:11:46.679Z,4.70
2023-05-07T14:14:50.596Z,6.10
2023-05-07T14:18:09.585Z,5.33
2023-05-07T14:21:13.674Z,5.23
2023-05-07T14:24:38.090Z,5.23
2023-05-07T14:27:46.687Z,4.93
2023-05-07T14:31:05.633Z,5.10
2023-05-07T14:34:09.666Z,5.37
2023-05-07T14:37:40.618Z,5.37
2023-05-07T14:40:44.490Z,4.87
2023-05-07T14:44:16.827Z,5.47
2023-05-07T14:47:20.712Z,4.47
2023-05-07T14:50:39.964Z,5.73
2023-05-07T14:53:43.679Z,5.70
2023-05-07T14:56:59.728Z,5.40
2023-05-07T15:00:17.802Z,5.65
2023-05-07T15:03:49.782Z,5.40
2023-05-07T15:07:05.692Z,5.00
2023-05-07T15:10:24.791Z,6.23
2023-05-07T15:13:28.943Z,4.80
2023-05-07T15:17:03.851Z,5.37
2023-05-07T15:20:07.762Z,5.20
2023-05-07T15:23:35.806Z,6.00
2023-05-07T15:26:42.827Z,6.63
2023-05-07T15:30:04.851Z,6.17
2023-05-07T15:33:24.932Z,6.50
2023-05-07T15:36:40.842Z,6.55
2023-05-07T15:39:44.857Z,6.50
2023-05-07T15:43:03.804Z,7.20
2023-05-07T15:46:07.973Z,7.30
2023-05-07T15:49:39.868Z,6.83
2023-05-07T15:52:43.954Z,7.57
2023-05-07T15:56:02.952Z,7.35
2023-05-07T15:59:07.893Z,8.00
2023-05-07T16:02:27.051Z,6.40
2023-05-07T16:05:59.010Z,6.70
2023-05-07T16:09:02.973Z,7.00
2023-05-07T16:12:18.815Z,7.00
2023-05-07T16:15:35.049Z,7.97
2023-05-07T16:19:05.932Z,6.37
2023-05-07T16:22:34.826Z,6.60
2023-05-07T16:26:21.128Z,6.50
2023-05-07T16:29:45.692Z,6.33
2023-05-07T16:33:10.951Z,7.07
2023-05-07T16:36:30.018Z,6.97
2023-05-07T16:40:02.147Z,7.60
2023-05-07T16:43:06.330Z,6.30
2023-05-07T16:46:23.174Z,6.97
2023-05-07T16:49:27.127Z,6.93
2023-05-07T16:52:55.145Z,7.03
2023-05-07T16:56:12.107Z,7.17
2023-05-07T16:59:28.055Z,8.50
2023-05-07T17:02:32.146Z,6.87
2023-05-07T17:05:51.107Z,7.23
2023-05-07T17:09:07.186Z,7.40
2023-05-07T17:12:39.196Z,9.73
2023-05-07T17:15:43.228Z,8.03
2023-05-07T17:19:00.122Z,6.60
2023-05-07T17:22:04.183Z,7.03
2023-05-07T17:25:21.201Z,7.37
2023-05-07T17:28:39.206Z,7.93
2023-05-07T17:31:55.253Z,8.17
2023-05-07T17:34:59.189Z,8.00
2023-05-07T17:38:27.286Z,8.53
2023-05-07T17:41:31.224Z,7.53
2023-05-07T17:45:03.309Z,7.83
2023-05-07T17:48:07.228Z,7.40
2023-05-07T17:51:23.261Z,10.43
2023-05-07T17:54:27.326Z,7.27
2023-05-07T17:57:58.232Z,6.73
2023-05-07T18:01:15.378Z,6.83
2023-05-07T18:04:31.304Z,7.30
2023-05-07T18:07:47.316Z,7.67
2023-05-07T18:11:03.371Z,9.37
2023-05-07T18:14:07.273Z,7.00
2023-05-07T18:17:40.480Z,7.87
2023-05-07T18:20:44.351Z,7.30
2023-05-07T18:24:00.300Z,7.33
2023-05-07T18:27:04.461Z,7.53
2023-05-07T18:30:36.512Z,7.27
2023-05-07T18:33:56.448Z,8.57
2023-05-07T18:37:15.361Z,7.00
2023-05-07T18:40:31.348Z,7.50
2023-05-07T18:43:59.463Z,7.07
2023-05-07T18:47:03.558Z,7.83
2023-05-07T18:50:36.486Z,8.15
2023-05-07T18:53:52.501Z,7.60
2023-05-07T18:57:08.493Z,7.03
2023-05-07T19:00:12.621Z,7.27
2023-05-07T19:03:43.566Z,8.53
2023-05-07T19:07:03.551Z,7.20
2023-05-07T19:10:19.584Z,7.10
2023-05-07T19:13:23.590Z,6.20
2023-05-07T19:16:39.636Z,6.77
2023-05-07T19:19:44.040Z,6.53
2023-05-07T19:23:18.765Z,6.60
2023-05-07T19:26:34.553Z,6.50
2023-05-07T19:29:53.577Z,7.27
2023-05-07T19:32:58.642Z,6.65
2023-05-07T19:36:18.778Z,6.97
2023-05-07T19:39:35.918Z,6.80
2023-05-07T19:43:04.712Z,6.17
2023-05-07T19:46:20.853Z,6.43
2023-05-07T19:49:51.687Z,7.00
2023-05-07T19:52:55.775Z,6.15
2023-05-07T19:56:31.712Z,6.23
2023-05-07T19:59:35.702Z,6.70
2023-05-07T20:02:51.963Z,6.57
2023-05-07T20:06:10.709Z,6.73
2023-05-07T20:09:14.689Z,6.30
2023-05-07T20:12:46.681Z,6.10
2023-05-07T20:16:02.888Z,7.03
2023-05-07T20:19:51.799Z,7.77
2023-05-07T20:23:10.679Z,7.10
2023-05-07T20:26:29.822Z,6.17
2023-05-07T20:29:46.725Z,6.30
2023-05-07T20:33:10.195Z,7.53
2023-05-07T20:36:26.470Z,6.25
2023-05-07T20:39:44.027Z,7.47
2023-05-07T20:42:50.768Z,6.00
2023-05-07T20:46:29.850Z,6.85
2023-05-07T20:49:45.901Z,6.20
2023-05-07T20:53:04.895Z,6.30
2023-05-07T20:56:08.884Z,6.20
2023-05-07T20:59:27.852Z,6.75
2023-05-07T21:02:44.991Z,6.63
2023-05-07T21:06:18.892Z,6.00
2023-05-07T21:09:22.944Z,6.50
2023-05-07T21:12:41.939Z,6.20
2023-05-07T21:15:45.937Z,6.25
2023-05-07T21:19:20.919Z,6.40
2023-05-07T21:22:36.997Z,6.20
2023-05-07T21:26:05.896Z,6.80
2023-05-07T21:29:10.120Z,5.63
2023-05-07T21:32:26.022Z,8.40
2023-05-07T21:35:46.013Z,6.60
2023-05-07T21:39:05.043Z,5.43
2023-05-07T21:42:08.973Z,6.87
2023-05-07T21:45:37.993Z,5.90
2023-05-07T21:48:41.935Z,6.05
2023-05-07T21:52:15.096Z,6.10
2023-05-07T21:55:31.163Z,6.35
2023-05-07T21:58:50.070Z,6.03
2023-05-07T22:01:54.138Z,6.95
2023-05-07T22:05:13.234Z,6.63
2023-05-07T22:08:33.055Z,9.00
2023-05-07T22:11:53.132Z,8.43
2023-05-07T22:14:57.063Z,7.20
2023-05-07T22:18:16.176Z,7.20
2023-05-07T22:21:20.049Z,6.70
2023-05-07T22:24:50.409Z,6.45
2023-05-07T22:27:54.315Z,6.20
2023-05-07T22:31:11.390Z,7.40
2023-05-07T22:34:15.185Z,7.37
2023-05-07T22:37:31.140Z,7.35
2023-05-07T22:40:51.390Z,6.43
2023-05-07T22:44:08.260Z,6.90
2023-05-07T22:47:12.214Z,7.20
2023-05-07T22:50:31.257Z,7.47
2023-05-07T22:53:47.247Z,7.20
2023-05-07T22:57:25.180Z,7.50
2023-05-07T23:00:29.165Z,7.30
2023-05-07T23:03:48.206Z,7.57
2023-05-07T23:06:52.216Z,7.50
2023-05-07T23:10:23.291Z,6.33
2023-05-07T23:13:40.264Z,9.95
2023-05-07T23:16:57.822Z,7.27
2023-05-07T23:20:04.351Z,6.80
2023-05-07T23:23:23.356Z,11.03
2023-05-07T23:26:27.318Z,8.35
2023-05-07T23:30:02.521Z,7.85
2023-05-07T23:33:06.363Z,9.00
2023-05-07T23:36:25.290Z,7.80
2023-05-07T23:39:29.386Z,8.23
2023-05-07T23:42:48.402Z,7.33
2023-05-07T23:46:05.361Z,7.80
2023-05-07T23:49:24.477Z,9.55
2023-05-07T23:52:29.219Z,6.80
2023-05-07T23:55:48.394Z,7.93
2023-05-07T23:58:54.604Z,7.30
